Time;durP1;ratioP1;P1;durP2;ratioP2;P2;SDS_P1;SDS_P2;PMS_P1;PMS_P2;Temp;Humidity;BMP_temperature;BMP_pressure;BME280_temperature;BME280_humidity;BME280_pressure;Samples;Min_cycle;Max_cycle;Signal;HPM_P1;HPM_P2
2023/11/14 00:00:50;;;;;;;6.78;3.95;;;8.30;99.90;;;;;;25598756;23;20017;-60
2023/11/14 00:10:52;;;;;;;3.40;1.95;;;8.70;99.90;;;;;;25598448;23;20005;-59
2023/11/14 00:20:57;;;;;;;0.68;0.13;;;7.00;99.90;;;;;;25595657;23;20016;-60
2023/11/14 00:31:00;;;;;;;1.23;0.70;;;7.50;99.90;;;;;;25638650;23;20004;-60
2023/11/14 00:41:02;;;;;;;0.80;0.40;;;7.70;99.90;;;;;;25596933;23;20005;-59
2023/11/14 00:51:04;;;;;;;1.88;0.40;;;8.00;99.90;;;;;;25596682;23;20005;-52
2023/11/14 01:01:09;;;;;;;1.17;0.20;;;7.90;99.90;;;;;;25594590;23;20009;-60
2023/11/14 01:11:10;;;;;;;0.00;0.00;;;7.60;99.90;;;;;;25596001;23;20013;-60
2023/11/14 01:21:16;;;;;;;0.70;0.45;;;9.40;99.90;;;;;;25595168;23;20063;-54
2023/11/14 01:31:21;;;;;;;0.10;0.00;;;10.60;99.90;;;;;;25636229;23;20008;-58
2023/11/14 01:41:23;;;;;;;13.93;7.65;;;12.00;99.90;;;;;;25594808;23;20009;-53
2023/11/14 01:51:25;;;;;;;13.52;8.15;;;9.90;99.90;;;;;;25594876;23;20016;-57
2023/11/14 02:01:28;;;;;;;16.50;9.30;;;6.80;99.90;;;;;;25594538;23;20008;-55
2023/11/14 02:11:30;;;;;;;12.88;7.40;;;5.30;99.90;;;;;;25592859;23;20083;-59
2023/11/14 02:21:34;;;;;;;2.42;0.57;;;5.10;99.90;;;;;;25593802;23;20005;-59
2023/11/14 02:31:36;;;;;;;0.85;0.40;;;6.30;99.90;;;;;;25593065;23;20005;-59
2023/11/14 02:41:39;;;;;;;2.38;1.38;;;7.00;99.90;;;;;;25597120;23;20013;-60
2023/11/14 02:51:41;;;;;;;1.10;0.60;;;6.80;99.90;;;;;;25601718;23;20021;-52
2023/11/14 03:01:43;;;;;;;1.40;0.95;;;6.00;99.90;;;;;;25599673;23;20012;-59
2023/11/14 03:11:45;;;;;;;2.28;0.93;;;6.20;99.90;;;;;;25600669;23;20016;-59
2023/11/14 03:21:48;;;;;;;2.10;0.80;;;6.30;99.90;;;;;;25598572;23;20009;-60
2023/11/14 03:31:49;;;;;;;1.38;0.22;;;6.40;99.90;;;;;;25599579;23;20005;-60
2023/11/14 03:41:51;;;;;;;0.57;0.20;;;6.70;99.90;;;;;;25599272;23;20009;-59
2023/11/14 03:51:53;;;;;;;1.30;0.20;;;8.00;99.90;;;;;;25600854;23;20012;-60
2023/11/14 04:01:58;;;;;;;3.17;0.55;;;9.20;99.90;;;;;;25597801;23;20043;-58
2023/11/14 04:12:02;;;;;;;1.50;0.30;;;10.10;99.90;;;;;;25598187;23;20016;-60
2023/11/14 04:22:07;;;;;;;0.77;0.20;;;11.20;99.90;;;;;;25597292;23;20005;-53
2023/11/14 04:32:09;;;;;;;3.63;0.50;;;11.20;99.90;;;;;;25597200;23;20050;-51
2023/11/14 04:42:11;;;;;;;1.40;0.40;;;11.20;99.90;;;;;;25597040;23;20381;-56
2023/11/14 04:52:13;;;;;;;1.20;0.38;;;10.90;99.90;;;;;;25596517;23;20055;-54
2023/11/14 05:02:14;;;;;;;0.57;0.20;;;11.40;99.90;;;;;;25596227;23;20055;-60
2023/11/14 05:12:16;;;;;;;0.30;0.20;;;11.90;99.90;;;;;;25595905;23;20298;-51
2023/11/14 05:22:18;;;;;;;1.23;0.20;;;11.90;99.90;;;;;;25592177;23;20063;-55
2023/11/14 05:32:20;;;;;;;0.40;0.20;;;12.50;99.90;;;;;;25590117;23;20009;-56
2023/11/14 05:42:22;;;;;;;0.43;0.10;;;12.50;99.90;;;;;;25590296;23;20051;-50
2023/11/14 05:52:24;;;;;;;7.97;5.22;;;12.80;99.90;;;;;;25589705;23;20001;-51
2023/11/14 06:02:26;;;;;;;0.55;0.00;;;12.10;99.90;;;;;;25589012;23;20495;-49
2023/11/14 06:12:29;;;;;;;6.60;4.28;;;12.30;99.90;;;;;;25588757;23;20001;-56
2023/11/14 06:22:32;;;;;;;8.63;5.78;;;12.20;99.90;;;;;;25541001;23;1354439;-54
2023/11/14 06:32:35;;;;;;;11.07;4.78;;;11.20;99.90;;;;;;25602078;23;20033;-59
2023/11/14 06:42:38;;;;;;;1.35;0.20;;;7.90;99.90;;;;;;25601989;23;20009;-51
2023/11/14 06:52:40;;;;;;;1.00;0.40;;;8.90;99.90;;;;;;25601250;23;20013;-59
2023/11/14 07:02:42;;;;;;;8.77;5.30;;;11.70;99.90;;;;;;25600945;23;20009;-56
2023/11/14 07:12:44;;;;;;;9.25;4.97;;;11.10;99.90;;;;;;25600524;23;20024;-59
2023/11/14 07:22:48;;;;;;;9.45;5.53;;;8.20;99.90;;;;;;25599777;23;20075;-57
2023/11/14 07:32:50;;;;;;;0.68;0.38;;;7.00;99.90;;;;;;25599435;23;20009;-54
2023/11/14 07:42:51;;;;;;;1.33;0.50;;;7.70;99.90;;;;;;25599516;23;20028;-48
2023/11/14 07:52:53;;;;;;;0.10;0.10;;;10.50;99.90;;;;;;25601026;23;20059;-60
2023/11/14 08:02:57;;;;;;;5.25;3.53;;;12.20;99.90;;;;;;25598617;23;20009;-50
2023/11/14 08:12:59;;;;;;;0.20;0.00;;;12.00;99.90;;;;;;25598033;23;20024;-61
2023/11/14 08:23:02;;;;;;;0.35;0.10;;;12.10;99.90;;;;;;25598046;23;20017;-52
2023/11/14 08:33:04;;;;;;;1.63;0.90;;;13.40;99.90;;;;;;25596931;23;20009;-51
2023/11/14 08:43:06;;;;;;;9.20;6.00;;;13.20;99.90;;;;;;25596348;23;20009;-59
2023/11/14 08:53:08;;;;;;;9.68;5.82;;;11.90;99.90;;;;;;25595932;23;20005;-54
2023/11/14 09:03:09;;;;;;;8.43;3.80;;;10.20;99.90;;;;;;25595945;23;20005;-52
2023/11/14 09:13:12;;;;;;;10.82;7.03;;;10.00;99.90;;;;;;25595814;23;20001;-49
2023/11/14 09:23:13;;;;;;;12.00;7.55;;;9.80;99.90;;;;;;25595017;23;20365;-50
2023/11/14 09:33:15;;;;;;;6.35;4.90;;;10.00;99.90;;;;;;25594234;23;20086;-58
2023/11/14 09:43:23;;;;;;;8.05;5.20;;;11.30;99.90;;;;;;25594919;23;20005;-48
2023/11/14 09:53:28;;;;;;;8.68;5.60;;;11.80;99.90;;;;;;25592747;23;20063;-58
2023/11/14 10:03:31;;;;;;;8.93;4.93;;;11.80;99.90;;;;;;25594245;23;20013;-47
2023/11/14 10:13:34;;;;;;;6.43;4.80;;;12.20;99.90;;;;;;25593174;23;20072;-48
2023/11/14 10:23:36;;;;;;;5.85;4.15;;;11.90;99.90;;;;;;25593713;23;20013;-54
2023/11/14 10:33:39;;;;;;;8.07;4.70;;;12.60;99.90;;;;;;25593103;23;20005;-51
2023/11/14 10:43:41;;;;;;;8.55;5.35;;;13.40;99.90;;;;;;25593105;23;20016;-55
2023/11/14 10:53:44;;;;;;;7.10;5.05;;;13.30;99.90;;;;;;25593302;23;20009;-52
2023/11/14 11:03:46;;;;;;;5.55;2.90;;;12.60;99.90;;;;;;25598496;23;20005;-53
2023/11/14 11:13:52;;;;;;;5.30;2.75;;;13.20;99.90;;;;;;25600223;23;20013;-50
2023/11/14 11:24:12;;;;;;;7.80;4.90;;;14.80;99.90;;;;;;25599197;23;20017;-57
2023/11/14 11:34:26;;;;;;;;;;;14.10;99.90;;;;;;25640808;23;20001;-56
2023/11/14 11:44:37;;;;;;;8.32;4.22;;;13.40;99.90;;;;;;25639696;23;19915;-50
2023/11/14 11:54:39;;;;;;;7.65;5.00;;;13.10;99.90;;;;;;25603789;23;20075;-57
2023/11/14 12:04:44;;;;;;;6.55;4.78;;;13.00;99.90;;;;;;25596622;23;20017;-52
2023/11/14 12:14:45;;;;;;;9.15;6.10;;;12.70;99.90;;;;;;25597061;23;20012;-57
2023/11/14 12:24:48;;;;;;;10.27;7.07;;;12.80;99.90;;;;;;25597218;23;20016;-58
2023/11/14 12:34:58;;;;;;;13.13;7.68;;;12.40;99.90;;;;;;25595486;23;20009;-53
2023/11/14 12:45:04;;;;;;;12.30;7.35;;;12.60;99.90;;;;;;25638116;23;20005;-58
2023/11/14 12:55:07;;;;;;;8.68;4.88;;;12.10;99.90;;;;;;25637639;23;20005;-51
2023/11/14 13:05:08;;;;;;;14.15;9.48;;;12.20;99.90;;;;;;25595793;23;20013;-58
2023/11/14 13:15:11;;;;;;;14.02;10.50;;;12.20;99.90;;;;;;25596014;23;20001;-50
2023/11/14 13:25:14;;;;;;;16.25;10.60;;;11.40;99.90;;;;;;25595308;23;20083;-53
2023/11/14 13:35:15;;;;;;;17.63;10.82;;;10.60;99.90;;;;;;25595337;23;20012;-57
2023/11/14 13:45:18;;;;;;;18.25;11.90;;;10.20;99.90;;;;;;25594903;23;20028;-58
2023/11/14 13:55:20;;;;;;;15.80;10.10;;;9.40;99.90;;;;;;25592782;23;20009;-51
2023/11/14 14:05:22;;;;;;;16.73;11.93;;;9.70;99.90;;;;;;25594542;23;20001;-54
2023/11/14 14:15:27;;;;;;;4.03;1.23;;;9.50;99.90;;;;;;25593732;23;20009;-56
2023/11/14 14:25:28;;;;;;;3.65;1.80;;;9.70;99.90;;;;;;25594131;23;20021;-50
2023/11/14 14:35:30;;;;;;;4.43;2.20;;;10.70;99.90;;;;;;25597378;23;20006;-52
2023/11/14 14:45:32;;;;;;;5.15;1.10;;;10.70;99.90;;;;;;25601271;23;20005;-49
2023/11/14 14:55:34;;;;;;;1.52;0.75;;;10.70;99.90;;;;;;25601413;23;20001;-48
2023/11/14 15:05:40;;;;;;;2.30;0.82;;;10.90;99.90;;;;;;25600982;23;20055;-58
2023/11/14 15:15:41;;;;;;;6.20;2.40;;;10.80;99.90;;;;;;25600115;23;20380;-53
2023/11/14 15:25:44;;;;;;;7.45;3.05;;;10.50;99.90;;;;;;25600264;23;20013;-56
2023/11/14 15:35:46;;;;;;;4.13;1.83;;;10.30;99.90;;;;;;25599825;23;20075;-56
2023/11/14 15:45:48;;;;;;;5.63;1.42;;;10.20;99.90;;;;;;25599246;23;20016;-58
2023/11/14 15:55:49;;;;;;;5.75;0.88;;;10.30;99.90;;;;;;25640204;23;20016;-57
2023/11/14 16:05:55;;;;;;;2.10;1.25;;;10.50;99.90;;;;;;25598743;23;20005;-54
2023/11/14 16:15:58;;;;;;;4.57;1.67;;;10.80;99.90;;;;;;25598267;23;20009;-52
2023/11/14 16:26:00;;;;;;;6.72;0.93;;;10.00;99.90;;;;;;25597308;23;20020;-58
2023/11/14 16:36:02;;;;;;;3.47;1.00;;;10.00;99.90;;;;;;25597601;23;20093;-57
2023/11/14 16:46:07;;;;;;;3.05;1.13;;;10.70;99.90;;;;;;25597162;23;20001;-58
2023/11/14 16:56:10;;;;;;;2.88;1.10;;;10.70;99.90;;;;;;25597667;23;20016;-58
2023/11/14 17:06:12;;;;;;;5.03;1.42;;;10.70;99.90;;;;;;25596219;23;20001;-58
2023/11/14 17:16:14;;;;;;;3.30;1.15;;;10.90;99.90;;;;;;25595743;23;20005;-53
2023/11/14 17:26:15;;;;;;;4.55;1.20;;;11.00;99.90;;;;;;25595636;23;20441;-59
2023/11/14 17:36:19;;;;;;;2.40;0.70;;;10.80;99.90;;;;;;25595301;23;20005;-58
2023/11/14 17:46:24;;;;;;;2.28;1.05;;;11.30;99.90;;;;;;25595261;23;20005;-57
2023/11/14 17:56:25;;;;;;;4.93;1.90;;;11.20;99.90;;;;;;25594782;23;20009;-59
2023/11/14 18:06:28;;;;;;;3.85;1.50;;;10.90;99.90;;;;;;25595616;23;20036;-58
2023/11/14 18:16:29;;;;;;;5.28;1.42;;;10.60;99.90;;;;;;25602374;23;20005;-52
2023/11/14 18:26:31;;;;;;;2.92;1.40;;;10.40;99.90;;;;;;25643853;23;20009;-59
2023/11/14 18:36:36;;;;;;;3.97;1.52;;;10.20;99.90;;;;;;25602097;23;20081;-58
2023/11/14 18:46:40;;;;;;;6.82;2.08;;;10.20;99.90;;;;;;25601676;23;20012;-57
2023/11/14 18:56:43;;;;;;;6.82;2.58;;;10.10;99.90;;;;;;25600893;23;20040;-59
2023/11/14 19:06:51;;;;;;;7.03;2.40;;;9.90;99.90;;;;;;25642090;23;20028;-51
2023/11/14 19:16:52;;;;;;;5.00;1.73;;;9.90;99.90;;;;;;25600272;23;20013;-58
2023/11/14 19:26:54;;;;;;;3.28;1.60;;;9.80;99.90;;;;;;25641399;23;20001;-57
2023/11/14 19:36:57;;;;;;;3.50;1.65;;;10.10;99.90;;;;;;25599901;23;20001;-57
2023/11/14 19:46:59;;;;;;;3.85;1.80;;;10.20;99.90;;;;;;25600052;23;20087;-53
2023/11/14 19:57:01;;;;;;;6.57;2.25;;;10.20;99.90;;;;;;25599200;23;20005;-59
2023/11/14 20:07:03;;;;;;;4.65;2.85;;;10.20;99.90;;;;;;25598002;23;20104;-55
2023/11/14 20:17:06;;;;;;;7.47;3.97;;;10.10;99.90;;;;;;25596316;23;20071;-52
2023/11/14 20:27:08;;;;;;;10.35;6.63;;;10.00;99.90;;;;;;25597471;23;20005;-58
2023/11/14 20:37:10;;;;;;;18.88;12.52;;;9.60;99.90;;;;;;25596895;23;20001;-58
2023/11/14 20:47:12;;;;;;;22.60;14.45;;;9.30;99.90;;;;;;25597078;23;20005;-57
2023/11/14 20:57:15;;;;;;;13.32;8.93;;;8.80;99.90;;;;;;25595234;23;20013;-57
2023/11/14 21:07:17;;;;;;;5.35;2.55;;;8.50;99.90;;;;;;25593271;23;20001;-57
2023/11/14 21:17:19;;;;;;;0.93;0.70;;;8.50;99.90;;;;;;25595694;23;20024;-59
2023/11/14 21:27:21;;;;;;;0.45;0.38;;;9.30;99.90;;;;;;25594983;23;20063;-51
2023/11/14 21:37:23;;;;;;;0.98;0.30;;;10.30;99.90;;;;;;25595383;23;20471;-59
2023/11/14 21:47:26;;;;;;;0.57;0.30;;;10.90;99.90;;;;;;25593662;23;20001;-59
2023/11/14 21:57:29;;;;;;;0.90;0.30;;;10.90;99.90;;;;;;25594449;23;20063;-53
2023/11/14 22:07:31;;;;;;;1.75;0.40;;;11.00;99.90;;;;;;25594638;23;20008;-55
2023/11/14 22:17:33;;;;;;;1.50;0.60;;;10.90;99.90;;;;;;25593834;23;20017;-59
2023/11/14 22:27:39;;;;;;;1.60;0.60;;;10.50;99.90;;;;;;25594327;23;20001;-54
2023/11/14 22:37:43;;;;;;;2.38;1.30;;;9.80;99.90;;;;;;25635079;23;20527;-55
2023/11/14 22:47:45;;;;;;;4.55;2.92;;;9.30;99.90;;;;;;25593216;23;20005;-59
2023/11/14 22:57:47;;;;;;;8.10;5.78;;;9.00;99.90;;;;;;25597968;23;20047;-47
2023/11/14 23:07:49;;;;;;;14.45;5.15;;;8.50;99.90;;;;;;25601206;23;20036;-50
2023/11/14 23:17:51;;;;;;;7.70;5.00;;;8.20;99.90;;;;;;25600587;23;20035;-59
2023/11/14 23:27:57;;;;;;;7.50;5.30;;;8.20;99.90;;;;;;25600708;23;20376;-53
2023/11/14 23:37:59;;;;;;;6.80;4.65;;;8.00;99.90;;;;;;25640747;23;20084;-52
2023/11/14 23:48:03;;;;;;;6.30;4.10;;;7.70;99.90;;;;;;25600431;23;20005;-54
2023/11/14 23:58:07;;;;;;;7.32;5.28;;;7.50;99.90;;;;;;25599227;23;20012;-56
